sensor_id;sensor_type;location;lat;lon;timestamp;P1;durP1;ratioP1;P2;durP2;ratioP2
36833;SDS011;48003;52.084;5.224;2022-11-20T00:00:51;27.8;;;19.3;;
36833;SDS011;48003;52.084;5.224;2022-11-20T00:02:27;26.6;;;17.7;;
36833;SDS011;48003;52.084;5.224;2022-11-20T00:04:03;26.6;;;17.41;;
36833;SDS011;48003;52.084;5.224;2022-11-20T00:05:39;25.3;;;16.4;;
36833;SDS011;48003;52.084;5.224;2022-11-20T00:08:53;24.2;;;16.3;;
36833;SDS011;48003;52.084;5.224;2022-11-20T00:10:31;25.1;;;16.5;;
36833;SDS011;48003;52.084;5.224;2022-11-20T00:12:08;25.5;;;16.9;;
36833;SDS011;48003;52.084;5.224;2022-11-20T00:15:21;24.5;;;16.4;;
36833;SDS011;48003;52.084;5.224;2022-11-20T00:16:57;24.6;;;16.11;;
36833;SDS011;48003;52.084;5.224;2022-11-20T00:18:34;23.3;;;16.4;;
36833;SDS011;48003;52.084;5.224;2022-11-20T00:20:11;25.2;;;16.61;;
36833;SDS011;48003;52.084;5.224;2022-11-20T00:23:27;24.9;;;17.11;;
36833;SDS011;48003;52.084;5.224;2022-11-20T00:25:04;24.5;;;16.61;;
36833;SDS011;48003;52.084;5.224;2022-11-20T00:26:41;25.6;;;17.2;;
36833;SDS011;48003;52.084;5.224;2022-11-20T00:29:53;26.9;;;18.2;;
36833;SDS011;48003;52.084;5.224;2022-11-20T00:31:29;25.3;;;17.8;;
36833;SDS011;48003;52.084;5.224;2022-11-20T00:33:06;25.8;;;18.0;;
36833;SDS011;48003;52.084;5.224;2022-11-20T00:36:20;25.5;;;16.5;;
36833;SDS011;48003;52.084;5.224;2022-11-20T00:37:58;26.5;;;17.3;;
36833;SDS011;48003;52.084;5.224;2022-11-20T00:39:34;26.3;;;17.91;;
36833;SDS011;48003;52.084;5.224;2022-11-20T00:41:11;25.8;;;17.2;;
36833;SDS011;48003;52.084;5.224;2022-11-20T00:44:25;23.8;;;16.7;;
36833;SDS011;48003;52.084;5.224;2022-11-20T00:46:03;25.3;;;16.8;;
36833;SDS011;48003;52.084;5.224;2022-11-20T00:47:41;24.7;;;16.11;;
36833;SDS011;48003;52.084;5.224;2022-11-20T00:50:54;23.8;;;15.7;;
36833;SDS011;48003;52.084;5.224;2022-11-20T00:52:33;22.8;;;15.8;;
36833;SDS011;48003;52.084;5.224;2022-11-20T00:54:10;25.3;;;15.9;;
36833;SDS011;48003;52.084;5.224;2022-11-20T00:55:52;23.9;;;15.6;;
36833;SDS011;48003;52.084;5.224;2022-11-20T00:59:05;24.3;;;15.7;;
36833;SDS011;48003;52.084;5.224;2022-11-20T01:00:41;24.4;;;16.11;;
36833;SDS011;48003;52.084;5.224;2022-11-20T01:02:18;26.0;;;16.0;;
36833;SDS011;48003;52.084;5.224;2022-11-20T01:05:34;24.4;;;16.0;;
36833;SDS011;48003;52.084;5.224;2022-11-20T01:07:10;24.9;;;16.5;;
36833;SDS011;48003;52.084;5.224;2022-11-20T01:08:47;26.1;;;16.3;;
36833;SDS011;48003;52.084;5.224;2022-11-20T01:10:25;23.1;;;15.9;;
36833;SDS011;48003;52.084;5.224;2022-11-20T01:13:37;25.1;;;15.8;;
36833;SDS011;48003;52.084;5.224;2022-11-20T01:15:13;24.8;;;16.3;;
36833;SDS011;48003;52.084;5.224;2022-11-20T01:16:50;24.1;;;15.9;;
36833;SDS011;48003;52.084;5.224;2022-11-20T01:20:04;23.1;;;15.1;;
36833;SDS011;48003;52.084;5.224;2022-11-20T01:21:43;23.3;;;15.7;;
36833;SDS011;48003;52.084;5.224;2022-11-20T01:23:20;22.1;;;15.1;;
36833;SDS011;48003;52.084;5.224;2022-11-20T01:26:33;22.5;;;14.8;;
36833;SDS011;48003;52.084;5.224;2022-11-20T01:28:12;21.6;;;14.5;;
36833;SDS011;48003;52.084;5.224;2022-11-20T01:29:48;22.7;;;15.0;;
36833;SDS011;48003;52.084;5.224;2022-11-20T01:31:25;21.8;;;14.8;;
36833;SDS011;48003;52.084;5.224;2022-11-20T01:34:40;21.8;;;14.8;;
36833;SDS011;48003;52.084;5.224;2022-11-20T01:36:17;23.7;;;15.0;;
36833;SDS011;48003;52.084;5.224;2022-11-20T01:37:55;23.9;;;15.4;;
36833;SDS011;48003;52.084;5.224;2022-11-20T01:41:08;19.8;;;14.0;;
36833;SDS011;48003;52.084;5.224;2022-11-20T01:43:50;20.9;;;14.5;;
36833;SDS011;48003;52.084;5.224;2022-11-20T01:45:50;22.1;;;14.9;;
36833;SDS011;48003;52.084;5.224;2022-11-20T01:47:35;22.8;;;15.0;;
36833;SDS011;48003;52.084;5.224;2022-11-20T01:49:16;22.0;;;14.2;;
36833;SDS011;48003;52.084;5.224;2022-11-20T01:50:59;22.5;;;15.6;;
36833;SDS011;48003;52.084;5.224;2022-11-20T01:52:38;24.0;;;14.6;;
36833;SDS011;48003;52.084;5.224;2022-11-20T01:54:19;21.4;;;14.8;;
36833;SDS011;48003;52.084;5.224;2022-11-20T01:57:42;22.5;;;14.9;;
36833;SDS011;48003;52.084;5.224;2022-11-20T01:59:21;22.6;;;15.1;;
36833;SDS011;48003;52.084;5.224;2022-11-20T02:01:02;22.5;;;15.0;;
36833;SDS011;48003;52.084;5.224;2022-11-20T02:02:41;21.0;;;14.1;;
36833;SDS011;48003;52.084;5.224;2022-11-20T02:06:02;22.5;;;14.7;;
36833;SDS011;48003;52.084;5.224;2022-11-20T02:07:43;23.0;;;14.9;;
36833;SDS011;48003;52.084;5.224;2022-11-20T02:09:20;21.2;;;14.3;;
36833;SDS011;48003;52.084;5.224;2022-11-20T02:13:50;21.0;;;14.6;;
36833;SDS011;48003;52.084;5.224;2022-11-20T02:16:05;22.5;;;15.6;;
36833;SDS011;48003;52.084;5.224;2022-11-20T02:17:47;24.4;;;15.5;;
36833;SDS011;48003;52.084;5.224;2022-11-20T02:19:26;22.7;;;15.3;;
36833;SDS011;48003;52.084;5.224;2022-11-20T02:22:50;21.3;;;14.4;;
36833;SDS011;48003;52.084;5.224;2022-11-20T02:24:33;25.9;;;15.0;;
36833;SDS011;48003;52.084;5.224;2022-11-20T02:26:10;23.8;;;14.7;;
36833;SDS011;48003;52.084;5.224;2022-11-20T02:27:51;22.9;;;15.6;;
36833;SDS011;48003;52.084;5.224;2022-11-20T02:31:10;22.2;;;15.1;;
36833;SDS011;48003;52.084;5.224;2022-11-20T02:32:46;21.2;;;14.6;;
36833;SDS011;48003;52.084;5.224;2022-11-20T02:34:22;21.8;;;14.7;;
36833;SDS011;48003;52.084;5.224;2022-11-20T02:37:35;24.6;;;15.2;;
36833;SDS011;48003;52.084;5.224;2022-11-20T02:39:16;25.5;;;15.6;;
36833;SDS011;48003;52.084;5.224;2022-11-20T02:40:53;23.2;;;15.6;;
36833;SDS011;48003;52.084;5.224;2022-11-20T02:42:29;23.3;;;15.1;;
36833;SDS011;48003;52.084;5.224;2022-11-20T02:45:41;22.8;;;14.6;;
36833;SDS011;48003;52.084;5.224;2022-11-20T02:47:18;21.9;;;14.7;;
36833;SDS011;48003;52.084;5.224;2022-11-20T02:48:54;23.2;;;14.9;;
36833;SDS011;48003;52.084;5.224;2022-11-20T02:52:06;21.2;;;14.2;;
36833;SDS011;48003;52.084;5.224;2022-11-20T02:53:43;22.9;;;14.9;;
36833;SDS011;48003;52.084;5.224;2022-11-20T02:55:19;20.9;;;14.8;;
36833;SDS011;48003;52.084;5.224;2022-11-20T02:58:31;21.3;;;14.6;;
36833;SDS011;48003;52.084;5.224;2022-11-20T03:00:08;21.5;;;14.1;;
36833;SDS011;48003;52.084;5.224;2022-11-20T03:01:44;19.61;;;14.6;;
36833;SDS011;48003;52.084;5.224;2022-11-20T03:03:20;22.7;;;15.3;;
36833;SDS011;48003;52.084;5.224;2022-11-20T03:06:34;22.8;;;15.2;;
36833;SDS011;48003;52.084;5.224;2022-11-20T03:08:10;21.5;;;14.9;;
36833;SDS011;48003;52.084;5.224;2022-11-20T03:09:46;22.4;;;15.1;;
36833;SDS011;48003;52.084;5.224;2022-11-20T03:13:00;22.3;;;14.9;;
36833;SDS011;48003;52.084;5.224;2022-11-20T03:14:35;22.9;;;14.7;;
36833;SDS011;48003;52.084;5.224;2022-11-20T03:16:13;21.4;;;14.4;;
36833;SDS011;48003;52.084;5.224;2022-11-20T03:19:30;21.5;;;14.0;;
36833;SDS011;48003;52.084;5.224;2022-11-20T03:21:06;21.7;;;14.2;;
36833;SDS011;48003;52.084;5.224;2022-11-20T03:22:43;20.5;;;14.1;;
36833;SDS011;48003;52.084;5.224;2022-11-20T03:24:19;22.4;;;14.7;;
36833;SDS011;48003;52.084;5.224;2022-11-20T03:27:32;22.6;;;15.4;;
36833;SDS011;48003;52.084;5.224;2022-11-20T03:29:09;23.7;;;14.7;;
36833;SDS011;48003;52.084;5.224;2022-11-20T03:30:45;23.4;;;15.4;;
36833;SDS011;48003;52.084;5.224;2022-11-20T03:33:57;22.0;;;14.1;;
36833;SDS011;48003;52.084;5.224;2022-11-20T03:35:35;21.1;;;13.9;;
36833;SDS011;48003;52.084;5.224;2022-11-20T03:37:11;21.7;;;14.1;;
36833;SDS011;48003;52.084;5.224;2022-11-20T03:40:24;21.8;;;14.6;;
36833;SDS011;48003;52.084;5.224;2022-11-20T03:42:00;22.3;;;15.2;;
36833;SDS011;48003;52.084;5.224;2022-11-20T03:43:36;23.3;;;14.4;;
36833;SDS011;48003;52.084;5.224;2022-11-20T03:46:52;23.6;;;15.0;;
36833;SDS011;48003;52.084;5.224;2022-11-20T03:48:28;22.5;;;14.5;;
36833;SDS011;48003;52.084;5.224;2022-11-20T03:50:06;22.0;;;14.7;;
36833;SDS011;48003;52.084;5.224;2022-11-20T03:51:43;21.4;;;14.5;;
36833;SDS011;48003;52.084;5.224;2022-11-20T03:54:56;21.3;;;14.2;;
36833;SDS011;48003;52.084;5.224;2022-11-20T03:56:33;21.7;;;14.3;;
36833;SDS011;48003;52.084;5.224;2022-11-20T03:58:11;20.7;;;13.7;;
36833;SDS011;48003;52.084;5.224;2022-11-20T04:01:23;23.4;;;15.0;;
36833;SDS011;48003;52.084;5.224;2022-11-20T04:03:03;21.9;;;14.2;;
36833;SDS011;48003;52.084;5.224;2022-11-20T04:04:39;21.4;;;14.6;;
36833;SDS011;48003;52.084;5.224;2022-11-20T04:06:16;22.7;;;14.7;;
36833;SDS011;48003;52.084;5.224;2022-11-20T04:09:31;24.5;;;16.11;;
36833;SDS011;48003;52.084;5.224;2022-11-20T04:11:08;20.8;;;13.9;;
36833;SDS011;48003;52.084;5.224;2022-11-20T04:12:46;22.2;;;14.2;;
36833;SDS011;48003;52.084;5.224;2022-11-20T04:15:58;21.5;;;14.9;;
36833;SDS011;48003;52.084;5.224;2022-11-20T04:17:35;23.6;;;14.5;;
36833;SDS011;48003;52.084;5.224;2022-11-20T04:19:12;23.3;;;15.0;;
36833;SDS011;48003;52.084;5.224;2022-11-20T04:20:51;21.8;;;14.4;;
36833;SDS011;48003;52.084;5.224;2022-11-20T04:24:06;21.5;;;14.4;;
36833;SDS011;48003;52.084;5.224;2022-11-20T04:25:42;22.2;;;14.7;;
36833;SDS011;48003;52.084;5.224;2022-11-20T04:27:18;22.8;;;15.0;;
36833;SDS011;48003;52.084;5.224;2022-11-20T04:30:32;22.4;;;14.5;;
36833;SDS011;48003;52.084;5.224;2022-11-20T04:32:08;22.1;;;14.9;;
36833;SDS011;48003;52.084;5.224;2022-11-20T04:33:45;20.9;;;14.2;;
36833;SDS011;48003;52.084;5.224;2022-11-20T04:36:57;21.1;;;14.4;;
36833;SDS011;48003;52.084;5.224;2022-11-20T04:38:33;20.3;;;14.3;;
36833;SDS011;48003;52.084;5.224;2022-11-20T04:40:10;23.6;;;15.0;;
36833;SDS011;48003;52.084;5.224;2022-11-20T04:41:46;22.5;;;13.9;;
36833;SDS011;48003;52.084;5.224;2022-11-20T04:44:59;20.3;;;14.1;;
36833;SDS011;48003;52.084;5.224;2022-11-20T04:46:36;22.8;;;15.1;;
36833;SDS011;48003;52.084;5.224;2022-11-20T04:48:14;20.2;;;13.8;;
36833;SDS011;48003;52.084;5.224;2022-11-20T04:51:27;23.2;;;14.5;;
36833;SDS011;48003;52.084;5.224;2022-11-20T04:53:03;21.5;;;13.9;;
36833;SDS011;48003;52.084;5.224;2022-11-20T04:54:39;22.6;;;14.1;;
36833;SDS011;48003;52.084;5.224;2022-11-20T04:57:52;21.5;;;14.6;;
36833;SDS011;48003;52.084;5.224;2022-11-20T04:59:29;21.2;;;14.5;;
36833;SDS011;48003;52.084;5.224;2022-11-20T05:01:05;23.9;;;14.7;;
36833;SDS011;48003;52.084;5.224;2022-11-20T05:02:43;22.0;;;13.8;;
36833;SDS011;48003;52.084;5.224;2022-11-20T05:05:55;21.8;;;14.3;;
36833;SDS011;48003;52.084;5.224;2022-11-20T05:07:32;22.2;;;14.8;;
36833;SDS011;48003;52.084;5.224;2022-11-20T05:09:08;20.6;;;14.7;;
36833;SDS011;48003;52.084;5.224;2022-11-20T05:12:20;20.3;;;14.2;;
36833;SDS011;48003;52.084;5.224;2022-11-20T05:13:57;22.0;;;14.5;;
36833;SDS011;48003;52.084;5.224;2022-11-20T05:15:34;22.9;;;14.8;;
36833;SDS011;48003;52.084;5.224;2022-11-20T05:18:48;20.6;;;14.5;;
36833;SDS011;48003;52.084;5.224;2022-11-20T05:20:26;22.5;;;14.9;;
36833;SDS011;48003;52.084;5.224;2022-11-20T05:22:03;22.8;;;14.3;;
36833;SDS011;48003;52.084;5.224;2022-11-20T05:23:41;25.9;;;14.5;;
36833;SDS011;48003;52.084;5.224;2022-11-20T05:26:55;22.0;;;14.5;;
36833;SDS011;48003;52.084;5.224;2022-11-20T05:28:31;21.2;;;13.6;;
36833;SDS011;48003;52.084;5.224;2022-11-20T05:30:09;21.2;;;13.6;;
36833;SDS011;48003;52.084;5.224;2022-11-20T05:33:24;22.5;;;14.4;;
36833;SDS011;48003;52.084;5.224;2022-11-20T05:35:00;21.4;;;14.1;;
36833;SDS011;48003;52.084;5.224;2022-11-20T05:36:36;21.4;;;14.3;;
36833;SDS011;48003;52.084;5.224;2022-11-20T05:38:12;23.0;;;14.4;;
36833;SDS011;48003;52.084;5.224;2022-11-20T05:41:25;22.8;;;14.9;;
36833;SDS011;48003;52.084;5.224;2022-11-20T05:43:01;23.3;;;14.7;;
36833;SDS011;48003;52.084;5.224;2022-11-20T05:44:38;21.0;;;13.8;;
36833;SDS011;48003;52.084;5.224;2022-11-20T05:47:57;22.2;;;14.6;;
36833;SDS011;48003;52.084;5.224;2022-11-20T05:49:35;20.9;;;14.1;;
36833;SDS011;48003;52.084;5.224;2022-11-20T05:51:12;19.8;;;13.8;;
36833;SDS011;48003;52.084;5.224;2022-11-20T05:52:51;20.5;;;14.5;;
36833;SDS011;48003;52.084;5.224;2022-11-20T05:56:06;22.5;;;14.2;;
36833;SDS011;48003;52.084;5.224;2022-11-20T05:57:45;21.7;;;14.2;;
36833;SDS011;48003;52.084;5.224;2022-11-20T05:59:21;21.4;;;14.3;;
36833;SDS011;48003;52.084;5.224;2022-11-20T06:02:41;22.0;;;14.1;;
36833;SDS011;48003;52.084;5.224;2022-11-20T06:05:53;22.4;;;13.9;;
36833;SDS011;48003;52.084;5.224;2022-11-20T06:07:30;20.7;;;14.2;;
36833;SDS011;48003;52.084;5.224;2022-11-20T06:10:42;22.9;;;14.3;;
36833;SDS011;48003;52.084;5.224;2022-11-20T06:12:18;22.3;;;14.3;;
36833;SDS011;48003;52.084;5.224;2022-11-20T06:13:54;20.5;;;14.2;;
36833;SDS011;48003;52.084;5.224;2022-11-20T06:17:07;22.1;;;14.2;;
36833;SDS011;48003;52.084;5.224;2022-11-20T06:18:43;20.2;;;13.6;;
36833;SDS011;48003;52.084;5.224;2022-11-20T06:20:20;21.9;;;14.6;;
36833;SDS011;48003;52.084;5.224;2022-11-20T06:23:34;22.6;;;14.8;;
36833;SDS011;48003;52.084;5.224;2022-11-20T06:25:12;22.2;;;14.3;;
36833;SDS011;48003;52.084;5.224;2022-11-20T06:26:49;21.9;;;14.1;;
36833;SDS011;48003;52.084;5.224;2022-11-20T06:28:25;23.3;;;14.7;;
36833;SDS011;48003;52.084;5.224;2022-11-20T06:31:39;22.0;;;14.6;;
36833;SDS011;48003;52.084;5.224;2022-11-20T06:33:15;21.6;;;14.7;;
36833;SDS011;48003;52.084;5.224;2022-11-20T06:34:51;23.1;;;14.9;;
36833;SDS011;48003;52.084;5.224;2022-11-20T06:38:03;21.4;;;14.3;;
36833;SDS011;48003;52.084;5.224;2022-11-20T06:39:42;20.5;;;14.9;;
36833;SDS011;48003;52.084;5.224;2022-11-20T06:41:18;22.7;;;14.7;;
36833;SDS011;48003;52.084;5.224;2022-11-20T06:44:33;21.1;;;14.4;;
36833;SDS011;48003;52.084;5.224;2022-11-20T06:46:10;21.3;;;13.9;;
36833;SDS011;48003;52.084;5.224;2022-11-20T06:47:48;20.7;;;14.7;;
36833;SDS011;48003;52.084;5.224;2022-11-20T06:49:25;20.9;;;14.3;;
36833;SDS011;48003;52.084;5.224;2022-11-20T06:52:39;21.4;;;14.3;;
36833;SDS011;48003;52.084;5.224;2022-11-20T06:54:16;22.3;;;14.7;;
36833;SDS011;48003;52.084;5.224;2022-11-20T06:55:52;22.4;;;14.6;;
36833;SDS011;48003;52.084;5.224;2022-11-20T06:59:08;22.6;;;13.9;;
36833;SDS011;48003;52.084;5.224;2022-11-20T07:00:44;20.2;;;14.3;;
36833;SDS011;48003;52.084;5.224;2022-11-20T07:02:21;21.5;;;14.1;;
36833;SDS011;48003;52.084;5.224;2022-11-20T07:03:57;25.0;;;15.1;;
36833;SDS011;48003;52.084;5.224;2022-11-20T07:07:10;24.5;;;15.2;;
36833;SDS011;48003;52.084;5.224;2022-11-20T07:08:47;21.7;;;14.6;;
36833;SDS011;48003;52.084;5.224;2022-11-20T07:10:23;21.5;;;14.7;;
36833;SDS011;48003;52.084;5.224;2022-11-20T07:13:36;24.3;;;15.2;;
36833;SDS011;48003;52.084;5.224;2022-11-20T07:15:12;21.8;;;15.1;;
36833;SDS011;48003;52.084;5.224;2022-11-20T07:16:48;22.6;;;15.0;;
36833;SDS011;48003;52.084;5.224;2022-11-20T07:20:02;23.2;;;15.7;;
36833;SDS011;48003;52.084;5.224;2022-11-20T07:21:38;22.4;;;15.1;;
36833;SDS011;48003;52.084;5.224;2022-11-20T07:23:14;22.9;;;16.2;;
36833;SDS011;48003;52.084;5.224;2022-11-20T07:24:50;24.0;;;15.6;;
36833;SDS011;48003;52.084;5.224;2022-11-20T07:28:03;23.6;;;16.0;;
36833;SDS011;48003;52.084;5.224;2022-11-20T07:29:40;23.5;;;15.4;;
36833;SDS011;48003;52.084;5.224;2022-11-20T07:31:16;21.7;;;14.8;;
36833;SDS011;48003;52.084;5.224;2022-11-20T07:34:31;23.7;;;15.6;;
36833;SDS011;48003;52.084;5.224;2022-11-20T07:36:07;23.7;;;15.7;;
36833;SDS011;48003;52.084;5.224;2022-11-20T07:37:45;24.9;;;16.4;;
36833;SDS011;48003;52.084;5.224;2022-11-20T07:41:01;24.4;;;16.2;;
36833;SDS011;48003;52.084;5.224;2022-11-20T07:42:38;25.8;;;16.4;;
36833;SDS011;48003;52.084;5.224;2022-11-20T07:44:14;25.7;;;16.3;;
36833;SDS011;48003;52.084;5.224;2022-11-20T07:45:50;25.5;;;17.3;;
36833;SDS011;48003;52.084;5.224;2022-11-20T07:49:05;26.9;;;17.8;;
36833;SDS011;48003;52.084;5.224;2022-11-20T07:50:41;26.5;;;17.61;;
36833;SDS011;48003;52.084;5.224;2022-11-20T07:52:17;27.7;;;17.7;;
36833;SDS011;48003;52.084;5.224;2022-11-20T07:55:29;25.6;;;17.61;;
36833;SDS011;48003;52.084;5.224;2022-11-20T07:57:07;28.4;;;17.3;;
36833;SDS011;48003;52.084;5.224;2022-11-20T07:58:43;24.5;;;16.4;;
36833;SDS011;48003;52.084;5.224;2022-11-20T08:01:55;26.2;;;17.61;;
36833;SDS011;48003;52.084;5.224;2022-11-20T08:03:32;27.6;;;19.0;;
36833;SDS011;48003;52.084;5.224;2022-11-20T08:05:09;28.6;;;19.5;;
36833;SDS011;48003;52.084;5.224;2022-11-20T08:06:46;26.5;;;17.91;;
36833;SDS011;48003;52.084;5.224;2022-11-20T08:09:59;27.8;;;17.8;;
36833;SDS011;48003;52.084;5.224;2022-11-20T08:15:47;26.8;;;18.2;;
36833;SDS011;48003;52.084;5.224;2022-11-20T08:17:25;26.4;;;17.5;;
36833;SDS011;48003;52.084;5.224;2022-11-20T08:20:37;26.8;;;17.61;;
36833;SDS011;48003;52.084;5.224;2022-11-20T08:22:15;25.7;;;17.3;;
36833;SDS011;48003;52.084;5.224;2022-11-20T08:23:51;25.3;;;17.7;;
36833;SDS011;48003;52.084;5.224;2022-11-20T08:27:05;26.5;;;17.7;;
36833;SDS011;48003;52.084;5.224;2022-11-20T08:28:42;27.5;;;19.11;;
36833;SDS011;48003;52.084;5.224;2022-11-20T08:30:18;31.0;;;19.91;;
36833;SDS011;48003;52.084;5.224;2022-11-20T08:31:54;26.8;;;18.8;;
36833;SDS011;48003;52.084;5.224;2022-11-20T08:35:08;27.1;;;18.3;;
36833;SDS011;48003;52.084;5.224;2022-11-20T08:36:45;25.0;;;17.8;;
36833;SDS011;48003;52.084;5.224;2022-11-20T08:38:21;23.6;;;16.3;;
36833;SDS011;48003;52.084;5.224;2022-11-20T08:41:33;26.2;;;17.61;;
36833;SDS011;48003;52.084;5.224;2022-11-20T08:43:10;22.6;;;16.61;;
36833;SDS011;48003;52.084;5.224;2022-11-20T08:44:46;24.2;;;16.2;;
36833;SDS011;48003;52.084;5.224;2022-11-20T08:48:01;25.2;;;16.5;;
36833;SDS011;48003;52.084;5.224;2022-11-20T08:49:37;24.0;;;16.3;;
36833;SDS011;48003;52.084;5.224;2022-11-20T08:51:14;22.1;;;16.8;;
36833;SDS011;48003;52.084;5.224;2022-11-20T08:52:51;25.2;;;17.0;;
36833;SDS011;48003;52.084;5.224;2022-11-20T08:56:03;25.3;;;17.0;;
36833;SDS011;48003;52.084;5.224;2022-11-20T08:57:40;24.9;;;17.0;;
36833;SDS011;48003;52.084;5.224;2022-11-20T08:59:17;26.2;;;18.2;;
36833;SDS011;48003;52.084;5.224;2022-11-20T09:02:30;30.0;;;18.7;;
36833;SDS011;48003;52.084;5.224;2022-11-20T09:04:06;28.0;;;18.41;;
36833;SDS011;48003;52.084;5.224;2022-11-20T09:05:42;29.1;;;19.11;;
36833;SDS011;48003;52.084;5.224;2022-11-20T09:08:55;27.2;;;19.0;;
36833;SDS011;48003;52.084;5.224;2022-11-20T09:10:32;27.7;;;18.61;;
36833;SDS011;48003;52.084;5.224;2022-11-20T09:12:08;29.4;;;18.41;;
36833;SDS011;48003;52.084;5.224;2022-11-20T09:13:44;27.1;;;19.11;;
36833;SDS011;48003;52.084;5.224;2022-11-20T09:16:59;27.9;;;18.91;;
36833;SDS011;48003;52.084;5.224;2022-11-20T09:18:36;27.9;;;19.5;;
36833;SDS011;48003;52.084;5.224;2022-11-20T09:20:13;27.3;;;18.7;;
36833;SDS011;48003;52.084;5.224;2022-11-20T09:23:27;27.4;;;19.41;;
36833;SDS011;48003;52.084;5.224;2022-11-20T09:25:08;25.7;;;17.91;;
36833;SDS011;48003;52.084;5.224;2022-11-20T09:26:44;27.0;;;18.7;;
36833;SDS011;48003;52.084;5.224;2022-11-20T09:28:21;26.6;;;18.41;;
36833;SDS011;48003;52.084;5.224;2022-11-20T09:31:33;27.2;;;18.7;;
36833;SDS011;48003;52.084;5.224;2022-11-20T09:33:09;26.7;;;18.41;;
36833;SDS011;48003;52.084;5.224;2022-11-20T09:34:45;30.1;;;18.8;;
36833;SDS011;48003;52.084;5.224;2022-11-20T09:37:58;27.4;;;18.5;;
36833;SDS011;48003;52.084;5.224;2022-11-20T09:39:38;28.4;;;19.61;;
36833;SDS011;48003;52.084;5.224;2022-11-20T09:41:29;27.6;;;19.3;;
36833;SDS011;48003;52.084;5.224;2022-11-20T09:43:23;29.0;;;20.0;;
